Terminal Aerodrome Forecast
Issued by NWS

Home | Current Version | Previous Version | Text Only | Print | Product List | Glossary On
Versions: 1 2 3 4 5 6 7 8 9 10 11 12 13 14 15 16
000
FTUS44 KCRP 252334
TAFLRD
TAF
KLRD 252334Z 2600/2624 17008KT P6SM FEW025
     FM260800 15010KT P6SM OVC012
      TEMPO 2610/2614 BKN009
     FM261500 15012KT P6SM SCT018 BKN026
     FM261700 13013KT P6SM SCT050=

USA.gov is the U.S. government's official web portal to all federal, state and local government web resources and services.